<?xml version="1.0" encoding="UTF-8" standalone="no" ?><gpx xmlns="http://www.topografix.com/GPX/1/1" xmlns:gpxx="http://www.garmin.com/xmlschemas/GpxExtensions/v3" xmlns:wptx1="http://www.garmin.com/xmlschemas/WaypointExtension/v1" xmlns:gpxtpx="http://www.garmin.com/xmlschemas/TrackPointExtension/v1" creator="eTrex 30" version="1.1" xmlns:xsi="http://www.w3.org/2001/XMLSchema-instance" xsi:schemaLocation="http://www.topografix.com/GPX/1/1 http://www.topografix.com/GPX/1/1/gpx.xsd http://www.garmin.com/xmlschemas/GpxExtensions/v3 http://www8.garmin.com/xmlschemas/GpxExtensionsv3.xsd http://www.garmin.com/xmlschemas/WaypointExtension/v1 http://www8.garmin.com/xmlschemas/WaypointExtensionv1.xsd http://www.garmin.com/xmlschemas/TrackPointExtension/v1 http://www.garmin.com/xmlschemas/TrackPointExtensionv1.xsd"><metadata><link href="http://www.garmin.com"><text>Garmin International</text></link><time>2012-08-29T22:20:15Z</time></metadata><trk><name>2012-08-08 10:23:00 Auto</name><extensions><gpxx:TrackExtension><gpxx:DisplayColor>Cyan</gpxx:DisplayColor></gpxx:TrackExtension></extensions><trkseg><trkpt lat="-3.5691784043" lon="-80.4583564214"><ele>6.87</ele><time>2012-08-08T15:23:00Z</time></trkpt><trkpt lat="-3.5691830982" lon="-80.4583464470"><ele>6.87</ele><time>2012-08-08T15:23:01Z</time></trkpt><trkpt lat="-3.5691646580" lon="-80.4584409948"><ele>6.87</ele><time>2012-08-08T15:23:28Z</time></trkpt><trkpt lat="-3.5692323837" lon="-80.4584681522"><ele>6.87</ele><time>2012-08-08T15:24:00Z</time></trkpt><trkpt lat="-3.5692150332" lon="-80.4584796354"><ele>6.87</ele><time>2012-08-08T15:24:19Z</time></trkpt><trkpt lat="-3.5691993590" lon="-80.4584741872"><ele>6.87</ele><time>2012-08-08T15:24:37Z</time></trkpt><trkpt lat="-3.5692086630" lon="-80.4584720917"><ele>6.87</ele><time>2012-08-08T15:24:55Z</time></trkpt><trkpt lat="-3.5692053940" lon="-80.4584679008"><ele>7.83</ele><time>2012-08-08T15:25:08Z</time></trkpt><trkpt lat="-3.5691813380" lon="-80.4584747739"><ele>9.27</ele><time>2012-08-08T15:25:23Z</time></trkpt><trkpt lat="-3.5691725370" lon="-80.4584779590"><ele>8.79</ele><time>2012-08-08T15:25:42Z</time></trkpt><trkpt lat="-3.5691431165" lon="-80.4584955610"><ele>9.27</ele><time>2012-08-08T15:26:19Z</time></trkpt><trkpt lat="-3.5691266041" lon="-80.4585044459"><ele>9.27</ele><time>2012-08-08T15:26:53Z</time></trkpt><trkpt lat="-3.5691255145" lon="-80.4585042782"><ele>8.79</ele><time>2012-08-08T15:27:35Z</time></trkpt></trkseg><trkseg><trkpt lat="-3.5691272747" lon="-80.4585126601"><ele>9.75</ele><time>2012-08-08T15:28:15Z</time></trkpt></trkseg><trkseg><trkpt lat="-3.5691296216" lon="-80.4585134983"><ele>1.10</ele><time>2012-08-08T15:28:21Z</time></trkpt><trkpt lat="-3.5691300407" lon="-80.4585136659"><ele>9.27</ele><time>2012-08-08T15:28:22Z</time></trkpt></trkseg><trkseg><trkpt lat="-3.5691304598" lon="-80.4585186113"><ele>9.27</ele><time>2012-08-08T15:28:51Z</time></trkpt></trkseg><trkseg><trkpt lat="-3.5692003649" lon="-80.4583993368"><ele>9.75</ele><time>2012-08-08T15:29:09Z</time></trkpt></trkseg><trkseg><trkpt lat="-3.5691134445" lon="-80.4585005064"><ele>9.27</ele><time>2012-08-08T15:29:32Z</time></trkpt><trkpt lat="-3.5691258498" lon="-80.4584953934"><ele>9.75</ele><time>2012-08-08T15:30:11Z</time></trkpt><trkpt lat="-3.5691419430" lon="-80.4584914539"><ele>9.75</ele><time>2012-08-08T15:30:49Z</time></trkpt><trkpt lat="-3.5691238381" lon="-80.4585174378"><ele>9.75</ele><time>2012-08-08T15:31:28Z</time></trkpt><trkpt lat="-3.5691229161" lon="-80.4585298430"><ele>9.75</ele><time>2012-08-08T15:32:02Z</time></trkpt><trkpt lat="-3.5691241734" lon="-80.4585274123"><ele>9.75</ele><time>2012-08-08T15:32:28Z</time></trkpt><trkpt lat="-3.5691253468" lon="-80.4585242271"><ele>9.75</ele><time>2012-08-08T15:32:53Z</time></trkpt><trkpt lat="-3.5691328906" lon="-80.4585180245"><ele>9.75</ele><time>2012-08-08T15:33:22Z</time></trkpt><trkpt lat="-3.5691263527" lon="-80.4585206229"><ele>9.75</ele><time>2012-08-08T15:33:48Z</time></trkpt><trkpt lat="-3.5691252630" lon="-80.4585202038"><ele>9.75</ele><time>2012-08-08T15:34:17Z</time></trkpt><trkpt lat="-3.5691274423" lon="-80.4585152585"><ele>9.75</ele><time>2012-08-08T15:34:36Z</time></trkpt><trkpt lat="-3.5691209044" lon="-80.4585172702"><ele>7.83</ele><time>2012-08-08T15:34:49Z</time></trkpt><trkpt lat="-3.5691395123" lon="-80.4585110676"><ele>6.87</ele><time>2012-08-08T15:35:15Z</time></trkpt><trkpt lat="-3.5691427812" lon="-80.4584927112"><ele>6.87</ele><time>2012-08-08T15:35:42Z</time></trkpt><trkpt lat="-3.5691508278" lon="-80.4584689066"><ele>6.87</ele><time>2012-08-08T15:36:15Z</time></trkpt><trkpt lat="-3.5691487323" lon="-80.4584567528"><ele>6.87</ele><time>2012-08-08T15:36:47Z</time></trkpt><trkpt lat="-3.5691516660" lon="-80.4584535677"><ele>6.87</ele><time>2012-08-08T15:37:16Z</time></trkpt><trkpt lat="-3.5691594612" lon="-80.4584508017"><ele>6.87</ele><time>2012-08-08T15:37:46Z</time></trkpt><trkpt lat="-3.5691638198" lon="-80.4584546573"><ele>7.35</ele><time>2012-08-08T15:38:20Z</time></trkpt><trkpt lat="-3.5691695195" lon="-80.4584597703"><ele>7.35</ele><time>2012-08-08T15:38:37Z</time></trkpt><trkpt lat="-3.5691677593" lon="-80.4584619496"><ele>7.35</ele><time>2012-08-08T15:39:11Z</time></trkpt><trkpt lat="-3.5691726208" lon="-80.4584653024"><ele>7.35</ele><time>2012-08-08T15:39:41Z</time></trkpt><trkpt lat="-3.5691722017" lon="-80.4584613629"><ele>7.35</ele><time>2012-08-08T15:40:01Z</time></trkpt><trkpt lat="-3.5691659153" lon="-80.4584585968"><ele>7.35</ele><time>2012-08-08T15:40:23Z</time></trkpt><trkpt lat="-3.5691669211" lon="-80.4584559985"><ele>7.35</ele><time>2012-08-08T15:40:34Z</time></trkpt><trkpt lat="-3.5691752192" lon="-80.4584646318"><ele>7.35</ele><time>2012-08-08T15:40:50Z</time></trkpt><trkpt lat="-3.5691707768" lon="-80.4584604409"><ele>7.83</ele><time>2012-08-08T15:41:07Z</time></trkpt><trkpt lat="-3.5691726208" lon="-80.4584551603"><ele>7.83</ele><time>2012-08-08T15:41:27Z</time></trkpt><trkpt lat="-3.5691711958" lon="-80.4584604409"><ele>7.83</ele><time>2012-08-08T15:41:47Z</time></trkpt><trkpt lat="-3.5691670887" lon="-80.4584703315"><ele>7.83</ele><time>2012-08-08T15:42:18Z</time></trkpt><trkpt lat="-3.5691779014" lon="-80.4584475327"><ele>7.35</ele><time>2012-08-08T15:42:39Z</time></trkpt><trkpt lat="-3.5691815894" lon="-80.4584492091"><ele>7.35</ele><time>2012-08-08T15:43:11Z</time></trkpt><trkpt lat="-3.5691817570" lon="-80.4584505502"><ele>7.83</ele><time>2012-08-08T15:43:41Z</time></trkpt><trkpt lat="-3.5691748001" lon="-80.4584874306"><ele>7.83</ele><time>2012-08-08T15:44:02Z</time></trkpt><trkpt lat="-3.5691786557" lon="-80.4584787972"><ele>7.83</ele><time>2012-08-08T15:44:20Z</time></trkpt><trkpt lat="-3.5691815894" lon="-80.4584729299"><ele>7.83</ele><time>2012-08-08T15:44:43Z</time></trkpt><trkpt lat="-3.5691784881" lon="-80.4584806412"><ele>8.31</ele><time>2012-08-08T15:45:01Z</time></trkpt><trkpt lat="-3.5691742133" lon="-80.4584793001"><ele>8.31</ele><time>2012-08-08T15:45:17Z</time></trkpt><trkpt lat="-3.5691764764" lon="-80.4584798869"><ele>8.31</ele><time>2012-08-08T15:45:39Z</time></trkpt><trkpt lat="-3.5691743810" lon="-80.4584937170"><ele>8.31</ele><time>2012-08-08T15:46:06Z</time></trkpt><trkpt lat="-3.5691785719" lon="-80.4585010093"><ele>8.31</ele><time>2012-08-08T15:46:31Z</time></trkpt><trkpt lat="-3.5691738781" lon="-80.4584990814"><ele>8.79</ele><time>2012-08-08T15:46:50Z</time></trkpt><trkpt lat="-3.5691680107" lon="-80.4585020151"><ele>9.75</ele><time>2012-08-08T15:47:14Z</time></trkpt><trkpt lat="-3.5691689327" lon="-80.4585145041"><ele>9.75</ele><time>2012-08-08T15:47:35Z</time></trkpt><trkpt lat="-3.5691745486" lon="-80.4585069604"><ele>9.75</ele><time>2012-08-08T15:48:05Z</time></trkpt><trkpt lat="-3.5691753868" lon="-80.4585066251"><ele>9.75</ele><time>2012-08-08T15:48:26Z</time></trkpt><trkpt lat="-3.5691789072" lon="-80.4584989138"><ele>10.23</ele><time>2012-08-08T15:48:53Z</time></trkpt><trkpt lat="-3.5691826791" lon="-80.4584917892"><ele>10.23</ele><time>2012-08-08T15:49:23Z</time></trkpt><trkpt lat="-3.5691826791" lon="-80.4584923759"><ele>10.23</ele><time>2012-08-08T15:49:51Z</time></trkpt><trkpt lat="-3.5691820923" lon="-80.4584897775"><ele>10.23</ele><time>2012-08-08T15:50:11Z</time></trkpt><trkpt lat="-3.5691738781" lon="-80.4584823176"><ele>10.23</ele><time>2012-08-08T15:50:35Z</time></trkpt><trkpt lat="-3.5691753868" lon="-80.4584863409"><ele>10.23</ele><time>2012-08-08T15:50:59Z</time></trkpt><trkpt lat="-3.5691772308" lon="-80.4584860057"><ele>10.23</ele><time>2012-08-08T15:51:27Z</time></trkpt><trkpt lat="-3.5691785719" lon="-80.4584856704"><ele>10.23</ele><time>2012-08-08T15:51:52Z</time></trkpt><trkpt lat="-3.5691810027" lon="-80.4584797192"><ele>10.71</ele><time>2012-08-08T15:52:05Z</time></trkpt><trkpt lat="-3.5691790748" lon="-80.4584740195"><ele>10.71</ele><time>2012-08-08T15:52:39Z</time></trkpt><trkpt lat="-3.5691773146" lon="-80.4584736843"><ele>10.71</ele><time>2012-08-08T15:53:13Z</time></trkpt><trkpt lat="-3.5691784881" lon="-80.4584782943"><ele>10.71</ele><time>2012-08-08T15:53:38Z</time></trkpt><trkpt lat="-3.5691753030" lon="-80.4584808089"><ele>10.71</ele><time>2012-08-08T15:54:05Z</time></trkpt><trkpt lat="-3.5691770632" lon="-80.4584844969"><ele>10.71</ele><time>2012-08-08T15:54:28Z</time></trkpt><trkpt lat="-3.5691882949" lon="-80.4584923759"><ele>10.71</ele><time>2012-08-08T15:55:01Z</time></trkpt><trkpt lat="-3.5691953357" lon="-80.4584962316"><ele>10.71</ele><time>2012-08-08T15:55:29Z</time></trkpt><trkpt lat="-3.5691924021" lon="-80.4584967345"><ele>10.71</ele><time>2012-08-08T15:55:51Z</time></trkpt><trkpt lat="-3.5691895522" lon="-80.4585004225"><ele>10.71</ele><time>2012-08-08T15:56:06Z</time></trkpt><trkpt lat="-3.5691938270" lon="-80.4584793840"><ele>11.19</ele><time>2012-08-08T15:56:28Z</time></trkpt><trkpt lat="-3.5691792425" lon="-80.4584777914"><ele>11.19</ele><time>2012-08-08T15:56:55Z</time></trkpt><trkpt lat="-3.5691537615" lon="-80.4584451858"><ele>11.19</ele><time>2012-08-08T15:57:12Z</time></trkpt><trkpt lat="-3.5692066513" lon="-80.4583617020"><ele>11.19</ele><time>2012-08-08T15:57:31Z</time></trkpt><trkpt lat="-3.5690651648" lon="-80.4583339579"><ele>11.19</ele><time>2012-08-08T15:57:47Z</time></trkpt><trkpt lat="-3.5689991154" lon="-80.4583722632"><ele>9.75</ele><time>2012-08-08T15:58:01Z</time></trkpt><trkpt lat="-3.5690187290" lon="-80.4583578464"><ele>9.75</ele><time>2012-08-08T15:58:16Z</time></trkpt><trkpt lat="-3.5690385941" lon="-80.4583608638"><ele>9.75</ele><time>2012-08-08T15:58:34Z</time></trkpt><trkpt lat="-3.5690530110" lon="-80.4583564214"><ele>9.27</ele><time>2012-08-08T15:58:55Z</time></trkpt><trkpt lat="-3.5690539330" lon="-80.4583600257"><ele>9.27</ele><time>2012-08-08T15:59:20Z</time></trkpt><trkpt lat="-3.5690599680" lon="-80.4583608638"><ele>9.27</ele><time>2012-08-08T16:00:05Z</time></trkpt><trkpt lat="-3.5690635722" lon="-80.4583617859"><ele>9.27</ele><time>2012-08-08T16:00:48Z</time></trkpt><trkpt lat="-3.5690646619" lon="-80.4583628755"><ele>9.27</ele><time>2012-08-08T16:01:25Z</time></trkpt><trkpt lat="-3.5690653324" lon="-80.4583622050"><ele>9.27</ele><time>2012-08-08T16:02:00Z</time></trkpt><trkpt lat="-3.5690681823" lon="-80.4583612829"><ele>9.27</ele><time>2012-08-08T16:02:29Z</time></trkpt><trkpt lat="-3.5690682661" lon="-80.4583573435"><ele>9.75</ele><time>2012-08-08T16:02:52Z</time></trkpt><trkpt lat="-3.5690692719" lon="-80.4583593551"><ele>9.75</ele><time>2012-08-08T16:03:12Z</time></trkpt><trkpt lat="-3.5690873768" lon="-80.4583277553"><ele>9.75</ele><time>2012-08-08T16:03:30Z</time></trkpt><trkpt lat="-3.5691028833" lon="-80.4583093151"><ele>9.27</ele><time>2012-08-08T16:03:44Z</time></trkpt><trkpt lat="-3.5691266879" lon="-80.4582665674"><ele>9.27</ele><time>2012-08-08T16:03:47Z</time></trkpt><trkpt lat="-3.5691402666" lon="-80.4582347162"><ele>9.27</ele><time>2012-08-08T16:03:48Z</time></trkpt><trkpt lat="-3.5691504925" lon="-80.4582125042"><ele>9.27</ele><time>2012-08-08T16:03:49Z</time></trkpt><trkpt lat="-3.5691693518" lon="-80.4581840895"><ele>9.27</ele><time>2012-08-08T16:03:50Z</time></trkpt><trkpt lat="-3.5691946652" lon="-80.4581550043"><ele>9.27</ele><time>2012-08-08T16:03:51Z</time></trkpt><trkpt lat="-3.5694196355" lon="-80.4577884637"><ele>11.67</ele><time>2012-08-08T16:04:05Z</time></trkpt><trkpt lat="-3.5695547517" lon="-80.4575161356"><ele>11.67</ele><time>2012-08-08T16:04:17Z</time></trkpt><trkpt lat="-3.5695421789" lon="-80.4574922472"><ele>11.67</ele><time>2012-08-08T16:04:19Z</time></trkpt><trkpt lat="-3.5692196433" lon="-80.4573251121"><ele>12.63</ele><time>2012-08-08T16:04:28Z</time></trkpt><trkpt lat="-3.5691226646" lon="-80.4572899919"><ele>13.12</ele><time>2012-08-08T16:04:30Z</time></trkpt><trkpt lat="-3.5689014662" lon="-80.4571867269"><ele>14.08</ele><time>2012-08-08T16:04:35Z</time></trkpt><trkpt lat="-3.5686839558" lon="-80.4570555501"><ele>14.56</ele><time>2012-08-08T16:04:41Z</time></trkpt><trkpt lat="-3.5681799520" lon="-80.4569199309"><ele>15.04</ele><time>2012-08-08T16:04:53Z</time></trkpt><trkpt lat="-3.5680954624" lon="-80.4568764288"><ele>15.04</ele><time>2012-08-08T16:05:05Z</time></trkpt><trkpt lat="-3.5678072087" lon="-80.4569322523"><ele>15.04</ele><time>2012-08-08T16:05:15Z</time></trkpt><trkpt lat="-3.5676127486" lon="-80.4572174046"><ele>15.04</ele><time>2012-08-08T16:05:27Z</time></trkpt><trkpt lat="-3.5674518161" lon="-80.4574107751"><ele>13.60</ele><time>2012-08-08T16:05:35Z</time></trkpt><trkpt lat="-3.5674000159" lon="-80.4575044848"><ele>10.23</ele><time>2012-08-08T16:05:39Z</time></trkpt><trkpt lat="-3.5673861019" lon="-80.4575395212"><ele>6.87</ele><time>2012-08-08T16:05:43Z</time></trkpt><trkpt lat="-3.5673785582" lon="-80.4575463943"><ele>5.91</ele><time>2012-08-08T16:05:45Z</time></trkpt><trkpt lat="-3.5672596190" lon="-80.4576779902"><ele>6.87</ele><time>2012-08-08T16:05:57Z</time></trkpt><trkpt lat="-3.5669765621" lon="-80.4580543377"><ele>6.39</ele><time>2012-08-08T16:06:08Z</time></trkpt><trkpt lat="-3.5669488180" lon="-80.4580589477"><ele>6.39</ele><time>2012-08-08T16:06:09Z</time></trkpt><trkpt lat="-3.5669077467" lon="-80.4580465425"><ele>6.39</ele><time>2012-08-08T16:06:10Z</time></trkpt><trkpt lat="-3.5668748897" lon="-80.4580307007"><ele>6.39</ele><time>2012-08-08T16:06:11Z</time></trkpt><trkpt lat="-3.5668190662" lon="-80.4579854384"><ele>6.39</ele><time>2012-08-08T16:06:12Z</time></trkpt><trkpt lat="-3.5667642485" lon="-80.4579409305"><ele>6.39</ele><time>2012-08-08T16:06:13Z</time></trkpt><trkpt lat="-3.5658213682" lon="-80.4572761618"><ele>6.39</ele><time>2012-08-08T16:06:28Z</time></trkpt><trkpt lat="-3.5650499817" lon="-80.4567538016"><ele>6.39</ele><time>2012-08-08T16:06:41Z</time></trkpt><trkpt lat="-3.5641122982" lon="-80.4561119154"><ele>7.35</ele><time>2012-08-08T16:06:54Z</time></trkpt><trkpt lat="-3.5632549133" lon="-80.4555504117"><ele>7.35</ele><time>2012-08-08T16:07:06Z</time></trkpt><trkpt lat="-3.5630688351" lon="-80.4553972743"><ele>7.35</ele><time>2012-08-08T16:07:10Z</time></trkpt><trkpt lat="-3.5622401163" lon="-80.4548492655"><ele>7.35</ele><time>2012-08-08T16:07:23Z</time></trkpt><trkpt lat="-3.5610693321" lon="-80.4540538229"><ele>7.35</ele><time>2012-08-08T16:07:39Z</time></trkpt><trkpt lat="-3.5607096646" lon="-80.4538385756"><ele>7.35</ele><time>2012-08-08T16:07:47Z</time></trkpt><trkpt lat="-3.5606923141" lon="-80.4538362287"><ele>6.39</ele><time>2012-08-08T16:08:03Z</time></trkpt><trkpt lat="-3.5605509114" lon="-80.4537289403"><ele>6.39</ele><time>2012-08-08T16:08:16Z</time></trkpt><trkpt lat="-3.5601177346" lon="-80.4534463026"><ele>6.39</ele><time>2012-08-08T16:08:28Z</time></trkpt><trkpt lat="-3.5593370441" lon="-80.4529091902"><ele>7.35</ele><time>2012-08-08T16:08:39Z</time></trkpt><trkpt lat="-3.5579930060" lon="-80.4519394040"><ele>8.31</ele><time>2012-08-08T16:08:56Z</time></trkpt><trkpt lat="-3.5573293269" lon="-80.4509796761"><ele>8.31</ele><time>2012-08-08T16:09:07Z</time></trkpt><trkpt lat="-3.5570364632" lon="-80.4498335347"><ele>8.31</ele><time>2012-08-08T16:09:17Z</time></trkpt><trkpt lat="-3.5566624627" lon="-80.4474313650"><ele>8.31</ele><time>2012-08-08T16:09:36Z</time></trkpt><trkpt lat="-3.5564775579" lon="-80.4461924359"><ele>8.31</ele><time>2012-08-08T16:09:47Z</time></trkpt><trkpt lat="-3.5562060680" lon="-80.4444106109"><ele>8.31</ele><time>2012-08-08T16:10:02Z</time></trkpt><trkpt lat="-3.5559857078" lon="-80.4429015331"><ele>7.83</ele><time>2012-08-08T16:10:16Z</time></trkpt><trkpt lat="-3.5557556245" lon="-80.4414384719"><ele>7.83</ele><time>2012-08-08T16:10:32Z</time></trkpt><trkpt lat="-3.5556006432" lon="-80.4404298775"><ele>7.83</ele><time>2012-08-08T16:10:43Z</time></trkpt><trkpt lat="-3.5552600864" lon="-80.4382085055"><ele>10.71</ele><time>2012-08-08T16:11:01Z</time></trkpt><trkpt lat="-3.5549034365" lon="-80.4358642548"><ele>13.12</ele><time>2012-08-08T16:11:20Z</time></trkpt><trkpt lat="-3.5546148475" lon="-80.4340617266"><ele>16.48</ele><time>2012-08-08T16:11:35Z</time></trkpt><trkpt lat="-3.5545171145" lon="-80.4334822856"><ele>19.36</ele><time>2012-08-08T16:11:40Z</time></trkpt><trkpt lat="-3.5544755403" lon="-80.4332237039"><ele>20.32</ele><time>2012-08-08T16:11:42Z</time></trkpt><trkpt lat="-3.5542913061" lon="-80.4316883907"><ele>20.32</ele><time>2012-08-08T16:11:55Z</time></trkpt><trkpt lat="-3.5539564490" lon="-80.4297167994"><ele>21.77</ele><time>2012-08-08T16:12:12Z</time></trkpt><trkpt lat="-3.5539009608" lon="-80.4293844569"><ele>21.77</ele><time>2012-08-08T16:12:19Z</time></trkpt><trkpt lat="-3.5538502503" lon="-80.4290837143"><ele>21.77</ele><time>2012-08-08T16:12:29Z</time></trkpt><trkpt lat="-3.5537230130" lon="-80.4283337854"><ele>21.77</ele><time>2012-08-08T16:12:42Z</time></trkpt><trkpt lat="-3.5536676925" lon="-80.4279729445"><ele>21.77</ele><time>2012-08-08T16:12:52Z</time></trkpt><trkpt lat="-3.5535247810" lon="-80.4270735662"><ele>25.13</ele><time>2012-08-08T16:13:01Z</time></trkpt><trkpt lat="-3.5532254633" lon="-80.4251324851"><ele>23.21</ele><time>2012-08-08T16:13:17Z</time></trkpt><trkpt lat="-3.5529623553" lon="-80.4233714473"><ele>23.21</ele><time>2012-08-08T16:13:30Z</time></trkpt><trkpt lat="-3.5526165180" lon="-80.4211195651"><ele>23.21</ele><time>2012-08-08T16:13:46Z</time></trkpt><trkpt lat="-3.5522650648" lon="-80.4188249353"><ele>24.17</ele><time>2012-08-08T16:14:03Z</time></trkpt><trkpt lat="-3.5518307146" lon="-80.4159950372"><ele>26.09</ele><time>2012-08-08T16:14:23Z</time></trkpt><trkpt lat="-3.5512962006" lon="-80.4133964796"><ele>27.05</ele><time>2012-08-08T16:14:42Z</time></trkpt><trkpt lat="-3.5506444238" lon="-80.4105529189"><ele>27.05</ele><time>2012-08-08T16:15:01Z</time></trkpt><trkpt lat="-3.5498561896" lon="-80.4072385468"><ele>25.61</ele><time>2012-08-08T16:15:22Z</time></trkpt><trkpt lat="-3.5492564645" lon="-80.4044627957"><ele>25.61</ele><time>2012-08-08T16:15:39Z</time></trkpt><trkpt lat="-3.5484445095" lon="-80.4008624330"><ele>27.53</ele><time>2012-08-08T16:16:03Z</time></trkpt><trkpt lat="-3.5477768909" lon="-80.3988501057"><ele>28.02</ele><time>2012-08-08T16:16:18Z</time></trkpt><trkpt lat="-3.5467358585" lon="-80.3971642535"><ele>27.53</ele><time>2012-08-08T16:16:32Z</time></trkpt><trkpt lat="-3.5448902473" lon="-80.3946571425"><ele>26.57</ele><time>2012-08-08T16:16:54Z</time></trkpt><trkpt lat="-3.5430421215" lon="-80.3921392187"><ele>26.09</ele><time>2012-08-08T16:17:15Z</time></trkpt><trkpt lat="-3.5413618013" lon="-80.3898369614"><ele>26.09</ele><time>2012-08-08T16:17:33Z</time></trkpt><trkpt lat="-3.5394512303" lon="-80.3872349672"><ele>26.09</ele><time>2012-08-08T16:17:54Z</time></trkpt><trkpt lat="-3.5381983873" lon="-80.3851737734"><ele>25.13</ele><time>2012-08-08T16:18:10Z</time></trkpt><trkpt lat="-3.5372244101" lon="-80.3827688377"><ele>23.21</ele><time>2012-08-08T16:18:27Z</time></trkpt><trkpt lat="-3.5363160633" lon="-80.3805274330"><ele>21.77</ele><time>2012-08-08T16:18:45Z</time></trkpt><trkpt lat="-3.5355123226" lon="-80.3785471246"><ele>20.81</ele><time>2012-08-08T16:19:04Z</time></trkpt><trkpt lat="-3.5350731947" lon="-80.3778710403"><ele>20.32</ele><time>2012-08-08T16:19:12Z</time></trkpt><trkpt lat="-3.5349943209" lon="-80.3778106067"><ele>20.32</ele><time>2012-08-08T16:19:13Z</time></trkpt><trkpt lat="-3.5349108372" lon="-80.3777564596"><ele>20.32</ele><time>2012-08-08T16:19:14Z</time></trkpt><trkpt lat="-3.5348219052" lon="-80.3777066711"><ele>20.32</ele><time>2012-08-08T16:19:15Z</time></trkpt><trkpt lat="-3.5347283632" lon="-80.3776619118"><ele>20.32</ele><time>2012-08-08T16:19:16Z</time></trkpt><trkpt lat="-3.5346321389" lon="-80.3776231874"><ele>20.32</ele><time>2012-08-08T16:19:17Z</time></trkpt><trkpt lat="-3.5345334839" lon="-80.3775900789"><ele>20.32</ele><time>2012-08-08T16:19:18Z</time></trkpt><trkpt lat="-3.5344323982" lon="-80.3775630053"><ele>20.32</ele><time>2012-08-08T16:19:19Z</time></trkpt><trkpt lat="-3.5343277082" lon="-80.3775442299"><ele>20.32</ele><time>2012-08-08T16:19:20Z</time></trkpt><trkpt lat="-3.5342213418" lon="-80.3775356803"><ele>20.32</ele><time>2012-08-08T16:19:21Z</time></trkpt><trkpt lat="-3.5341152269" lon="-80.3775370214"><ele>20.32</ele><time>2012-08-08T16:19:22Z</time></trkpt><trkpt lat="-3.5340095311" lon="-80.3775460739"><ele>20.32</ele><time>2012-08-08T16:19:23Z</time></trkpt><trkpt lat="-3.5339040868" lon="-80.3775663581"><ele>20.32</ele><time>2012-08-08T16:19:24Z</time></trkpt><trkpt lat="-3.5337973852" lon="-80.3775938507"><ele>20.32</ele><time>2012-08-08T16:19:25Z</time></trkpt><trkpt lat="-3.5325566120" lon="-80.3781440388"><ele>20.32</ele><time>2012-08-08T16:19:37Z</time></trkpt><trkpt lat="-3.5305449553" lon="-80.3790523857"><ele>21.29</ele><time>2012-08-08T16:19:54Z</time></trkpt><trkpt lat="-3.5286904592" lon="-80.3799059987"><ele>21.29</ele><time>2012-08-08T16:20:08Z</time></trkpt><trkpt lat="-3.5259047337" lon="-80.3811134119"><ele>22.25</ele><time>2012-08-08T16:20:27Z</time></trkpt><trkpt lat="-3.5252797790" lon="-80.3813878354"><ele>20.81</ele><time>2012-08-08T16:20:32Z</time></trkpt><trkpt lat="-3.5247308481" lon="-80.3816263843"><ele>17.44</ele><time>2012-08-08T16:20:37Z</time></trkpt><trkpt lat="-3.5242770519" lon="-80.3818257060"><ele>13.60</ele><time>2012-08-08T16:20:41Z</time></trkpt><trkpt lat="-3.5222783871" lon="-80.3827072307"><ele>11.67</ele><time>2012-08-08T16:20:57Z</time></trkpt><trkpt lat="-3.5199422669" lon="-80.3837410547"><ele>11.19</ele><time>2012-08-08T16:21:15Z</time></trkpt><trkpt lat="-3.5173755605" lon="-80.3848695941"><ele>10.71</ele><time>2012-08-08T16:21:34Z</time></trkpt><trkpt lat="-3.5155085754" lon="-80.3856792860"><ele>10.23</ele><time>2012-08-08T16:21:48Z</time></trkpt><trkpt lat="-3.5132276081" lon="-80.3866816778"><ele>9.27</ele><time>2012-08-08T16:22:05Z</time></trkpt><trkpt lat="-3.5112699308" lon="-80.3875466064"><ele>10.71</ele><time>2012-08-08T16:22:18Z</time></trkpt><trkpt lat="-3.5088283662" lon="-80.3886424564"><ele>10.71</ele><time>2012-08-08T16:22:35Z</time></trkpt><trkpt lat="-3.5075937957" lon="-80.3890996054"><ele>9.27</ele><time>2012-08-08T16:22:45Z</time></trkpt><trkpt lat="-3.5062345024" lon="-80.3891572729"><ele>8.79</ele><time>2012-08-08T16:22:55Z</time></trkpt><trkpt lat="-3.5039757472" lon="-80.3891674988"><ele>7.83</ele><time>2012-08-08T16:23:12Z</time></trkpt><trkpt lat="-3.5027970001" lon="-80.3891757969"><ele>4.46</ele><time>2012-08-08T16:23:24Z</time></trkpt><trkpt lat="-3.5023439582" lon="-80.3891791496"><ele>1.10</ele><time>2012-08-08T16:23:30Z</time></trkpt><trkpt lat="-3.5016179178" lon="-80.3892107494"><ele>1.10</ele><time>2012-08-08T16:23:41Z</time></trkpt><trkpt lat="-3.5011164285" lon="-80.3893316165"><ele>1.10</ele><time>2012-08-08T16:23:52Z</time></trkpt><trkpt lat="-3.5009559151" lon="-80.3894172795"><ele>0.62</ele><time>2012-08-08T16:24:05Z</time></trkpt><trkpt lat="-3.5007933062" lon="-80.3894377314"><ele>0.14</ele><time>2012-08-08T16:24:20Z</time></trkpt><trkpt lat="-3.5007910430" lon="-80.3894417547"><ele>0.14</ele><time>2012-08-08T16:24:38Z</time></trkpt><trkpt lat="-3.5006790608" lon="-80.3895389847"><ele>0.14</ele><time>2012-08-08T16:24:54Z</time></trkpt><trkpt lat="-3.5006964952" lon="-80.3895526472"><ele>0.14</ele><time>2012-08-08T16:25:02Z</time></trkpt><trkpt lat="-3.5009047855" lon="-80.3895038646"><ele>0.14</ele><time>2012-08-08T16:25:20Z</time></trkpt><trkpt lat="-3.5009388998" lon="-80.3895123303"><ele>0.14</ele><time>2012-08-08T16:25:34Z</time></trkpt><trkpt lat="-3.5009667277" lon="-80.3896348737"><ele>-0.34</ele><time>2012-08-08T16:25:47Z</time></trkpt><trkpt lat="-3.5010931268" lon="-80.3898644540"><ele>-0.34</ele><time>2012-08-08T16:26:05Z</time></trkpt><trkpt lat="-3.5010937974" lon="-80.3900419828"><ele>-0.82</ele><time>2012-08-08T16:26:21Z</time></trkpt><trkpt lat="-3.5011244752" lon="-80.3900355287"><ele>-0.82</ele><time>2012-08-08T16:26:40Z</time></trkpt><trkpt lat="-3.5011459328" lon="-80.3900331818"><ele>-0.82</ele><time>2012-08-08T16:26:44Z</time></trkpt><trkpt lat="-3.5010544024" lon="-80.3897928726"><ele>-0.82</ele><time>2012-08-08T16:26:57Z</time></trkpt><trkpt lat="-3.5009534843" lon="-80.3895264119"><ele>-0.82</ele><time>2012-08-08T16:27:15Z</time></trkpt><trkpt lat="-3.5009534843" lon="-80.3895264119"><ele>-0.82</ele><time>2012-08-08T16:27:40Z</time></trkpt><trkpt lat="-3.5009301826" lon="-80.3894951474"><ele>-0.82</ele><time>2012-08-08T16:27:50Z</time></trkpt><trkpt lat="-3.5009145923" lon="-80.3894926328"><ele>-0.82</ele><time>2012-08-08T16:27:51Z</time></trkpt><trkpt lat="-3.5008702520" lon="-80.3895062953"><ele>-0.82</ele><time>2012-08-08T16:27:53Z</time></trkpt><trkpt lat="-3.5008485429" lon="-80.3895153478"><ele>1.10</ele><time>2012-08-08T16:27:54Z</time></trkpt><trkpt lat="-3.5007943120" lon="-80.3895401582"><ele>1.58</ele><time>2012-08-08T16:27:56Z</time></trkpt><trkpt lat="-3.5007270891" lon="-80.3895942215"><ele>1.10</ele><time>2012-08-08T16:28:09Z</time></trkpt><trkpt lat="-3.5007254966" lon="-80.3896022681"><ele>1.10</ele><time>2012-08-08T16:28:10Z</time></trkpt><trkpt lat="-3.5007946473" lon="-80.3898061160"><ele>1.10</ele><time>2012-08-08T16:28:23Z</time></trkpt><trkpt lat="-3.5007525701" lon="-80.3898352012"><ele>0.14</ele><time>2012-08-08T16:28:38Z</time></trkpt><trkpt lat="-3.5007543303" lon="-80.3898369614"><ele>0.14</ele><time>2012-08-08T16:28:56Z</time></trkpt><trkpt lat="-3.5007570963" lon="-80.3898376320"><ele>0.14</ele><time>2012-08-08T16:29:11Z</time></trkpt><trkpt lat="-3.5007495526" lon="-80.3897690680"><ele>0.14</ele><time>2012-08-08T16:29:37Z</time></trkpt><trkpt lat="-3.5007347167" lon="-80.3897310980"><ele>0.14</ele><time>2012-08-08T16:29:51Z</time></trkpt><trkpt lat="-3.5007347167" lon="-80.3897310980"><ele>0.14</ele><time>2012-08-08T16:30:07Z</time></trkpt><trkpt lat="-3.5007193778" lon="-80.3896902781"><ele>0.14</ele><time>2012-08-08T16:30:25Z</time></trkpt><trkpt lat="-3.5007113311" lon="-80.3896723408"><ele>0.14</ele><time>2012-08-08T16:30:39Z</time></trkpt><trkpt lat="-3.5006321222" lon="-80.3896340355"><ele>0.14</ele><time>2012-08-08T16:30:53Z</time></trkpt><trkpt lat="-3.5005139373" lon="-80.3896269947"><ele>0.14</ele><time>2012-08-08T16:31:08Z</time></trkpt><trkpt lat="-3.5004434455" lon="-80.3896421660"><ele>1.58</ele><time>2012-08-08T16:31:20Z</time></trkpt><trkpt lat="-3.5003379174" lon="-80.3896721732"><ele>1.58</ele><time>2012-08-08T16:31:35Z</time></trkpt><trkpt lat="-3.5002212413" lon="-80.3897085506"><ele>1.58</ele><time>2012-08-08T16:31:50Z</time></trkpt><trkpt lat="-3.5001146235" lon="-80.3897489514"><ele>1.58</ele><time>2012-08-08T16:32:06Z</time></trkpt><trkpt lat="-3.5000489093" lon="-80.3898186889"><ele>1.58</ele><time>2012-08-08T16:32:21Z</time></trkpt><trkpt lat="-3.4999599773" lon="-80.3898671363"><ele>1.58</ele><time>2012-08-08T16:32:37Z</time></trkpt><trkpt lat="-3.4998393618" lon="-80.3898740094"><ele>1.58</ele><time>2012-08-08T16:32:54Z</time></trkpt><trkpt lat="-3.4997791797" lon="-80.3899015859"><ele>1.58</ele><time>2012-08-08T16:33:09Z</time></trkpt><trkpt lat="-3.4997452330" lon="-80.3899352811"><ele>1.58</ele><time>2012-08-08T16:33:24Z</time></trkpt><trkpt lat="-3.4997440595" lon="-80.3899362031"><ele>1.58</ele><time>2012-08-08T16:34:04Z</time></trkpt><trkpt lat="-3.4997440595" lon="-80.3899362031"><ele>1.58</ele><time>2012-08-08T16:34:09Z</time></trkpt></trkseg><trkseg><trkpt lat="-3.4997389466" lon="-80.3899510391"><ele>2.06</ele><time>2012-08-08T16:57:36Z</time></trkpt><trkpt lat="-3.4997413773" lon="-80.3899284918"><ele>2.06</ele><time>2012-08-08T16:57:37Z</time></trkpt><trkpt lat="-3.4997833706" lon="-80.3899393883"><ele>2.06</ele><time>2012-08-08T16:57:50Z</time></trkpt><trkpt lat="-3.4998519346" lon="-80.3899609298"><ele>2.06</ele><time>2012-08-08T16:58:04Z</time></trkpt><trkpt lat="-3.4998583887" lon="-80.3899619356"><ele>2.06</ele><time>2012-08-08T16:58:05Z</time></trkpt><trkpt lat="-3.4999013040" lon="-80.3899536375"><ele>2.06</ele><time>2012-08-08T16:58:10Z</time></trkpt><trkpt lat="-3.4999945108" lon="-80.3900254704"><ele>2.06</ele><time>2012-08-08T16:58:24Z</time></trkpt><trkpt lat="-3.5000141244" lon="-80.3900330141"><ele>2.06</ele><time>2012-08-08T16:58:41Z</time></trkpt><trkpt lat="-3.5000084247" lon="-80.3900382947"><ele>2.06</ele><time>2012-08-08T16:59:11Z</time></trkpt><trkpt lat="-3.5000178125" lon="-80.3900389653"><ele>2.06</ele><time>2012-08-08T16:59:44Z</time></trkpt><trkpt lat="-3.5000085086" lon="-80.3900306672"><ele>2.54</ele><time>2012-08-08T17:00:23Z</time></trkpt><trkpt lat="-3.5000123642" lon="-80.3900308348"><ele>2.54</ele><time>2012-08-08T17:00:59Z</time></trkpt><trkpt lat="-3.5000127833" lon="-80.3900330979"><ele>2.54</ele><time>2012-08-08T17:01:25Z</time></trkpt><trkpt lat="-3.5000127833" lon="-80.3900330979"><ele>2.54</ele><time>2012-08-08T17:01:58Z</time></trkpt><trkpt lat="-3.5000132024" lon="-80.3900327627"><ele>2.54</ele><time>2012-08-08T17:02:33Z</time></trkpt><trkpt lat="-3.5000138730" lon="-80.3900326788"><ele>2.54</ele><time>2012-08-08T17:03:01Z</time></trkpt><trkpt lat="-3.5000153817" lon="-80.3900316730"><ele>2.54</ele><time>2012-08-08T17:03:31Z</time></trkpt><trkpt lat="-3.5000154655" lon="-80.3900314216"><ele>2.54</ele><time>2012-08-08T17:04:06Z</time></trkpt><trkpt lat="-3.5000166390" lon="-80.3900310863"><ele>2.54</ele><time>2012-08-08T17:04:44Z</time></trkpt><trkpt lat="-3.5000166390" lon="-80.3900310863"><ele>2.54</ele><time>2012-08-08T17:05:09Z</time></trkpt><trkpt lat="-3.5000132862" lon="-80.3900232911"><ele>2.54</ele><time>2012-08-08T17:05:16Z</time></trkpt><trkpt lat="-3.5000182316" lon="-80.3900049347"><ele>3.02</ele><time>2012-08-08T17:05:29Z</time></trkpt><trkpt lat="-3.5000142921" lon="-80.3900285717"><ele>3.02</ele><time>2012-08-08T17:05:42Z</time></trkpt><trkpt lat="-3.5000090115" lon="-80.3900421504"><ele>3.02</ele><time>2012-08-08T17:05:53Z</time></trkpt><trkpt lat="-3.5000044014" lon="-80.3900346905"><ele>3.02</ele><time>2012-08-08T17:06:24Z</time></trkpt><trkpt lat="-3.4999938402" lon="-80.3899939544"><ele>3.02</ele><time>2012-08-08T17:06:35Z</time></trkpt><trkpt lat="-3.5000069160" lon="-80.3900466766"><ele>3.50</ele><time>2012-08-08T17:06:46Z</time></trkpt><trkpt lat="-3.5000069160" lon="-80.3900466766"><ele>3.50</ele><time>2012-08-08T17:07:21Z</time></trkpt><trkpt lat="-3.5000053234" lon="-80.3900309186"><ele>3.50</ele><time>2012-08-08T17:07:29Z</time></trkpt><trkpt lat="-3.5000123642" lon="-80.3900482692"><ele>3.50</ele><time>2012-08-08T17:07:40Z</time></trkpt><trkpt lat="-3.5000113584" lon="-80.3900520410"><ele>3.50</ele><time>2012-08-08T17:08:07Z</time></trkpt><trkpt lat="-3.5000119451" lon="-80.3900512028"><ele>3.50</ele><time>2012-08-08T17:08:31Z</time></trkpt><trkpt lat="-3.5000116937" lon="-80.3900504485"><ele>3.50</ele><time>2012-08-08T17:09:09Z</time></trkpt><trkpt lat="-3.5000119451" lon="-80.3900481854"><ele>3.50</ele><time>2012-08-08T17:09:43Z</time></trkpt><trkpt lat="-3.5000119451" lon="-80.3900481854"><ele>3.50</ele><time>2012-08-08T17:10:11Z</time></trkpt><trkpt lat="-3.5000116099" lon="-80.3900471795"><ele>3.50</ele><time>2012-08-08T17:10:36Z</time></trkpt><trkpt lat="-3.5000120290" lon="-80.3900445811"><ele>3.50</ele><time>2012-08-08T17:11:10Z</time></trkpt><trkpt lat="-3.5000123642" lon="-80.3900428209"><ele>3.50</ele><time>2012-08-08T17:11:44Z</time></trkpt><trkpt lat="-3.5000123642" lon="-80.3900428209"><ele>3.50</ele><time>2012-08-08T17:12:15Z</time></trkpt><trkpt lat="-3.5000116937" lon="-80.3900421504"><ele>3.50</ele><time>2012-08-08T17:12:47Z</time></trkpt><trkpt lat="-3.5000148788" lon="-80.3900418989"><ele>3.50</ele><time>2012-08-08T17:13:19Z</time></trkpt><trkpt lat="-3.5000136215" lon="-80.3900430724"><ele>3.50</ele><time>2012-08-08T17:14:02Z</time></trkpt><trkpt lat="-3.5000107717" lon="-80.3900448326"><ele>3.98</ele><time>2012-08-08T17:14:36Z</time></trkpt><trkpt lat="-3.5000091791" lon="-80.3900415637"><ele>3.98</ele><time>2012-08-08T17:15:12Z</time></trkpt><trkpt lat="-3.5000085086" lon="-80.3900409769"><ele>3.98</ele><time>2012-08-08T17:15:43Z</time></trkpt><trkpt lat="-3.5000085086" lon="-80.3900409769"><ele>3.98</ele><time>2012-08-08T17:16:20Z</time></trkpt><trkpt lat="-3.5000073351" lon="-80.3900428209"><ele>3.98</ele><time>2012-08-08T17:17:02Z</time></trkpt><trkpt lat="-3.5000077542" lon="-80.3900450841"><ele>3.98</ele><time>2012-08-08T17:17:42Z</time></trkpt><trkpt lat="-3.5000094306" lon="-80.3900444973"><ele>3.98</ele><time>2012-08-08T17:18:25Z</time></trkpt><trkpt lat="-3.5000108555" lon="-80.3900439106"><ele>3.98</ele><time>2012-08-08T17:19:04Z</time></trkpt><trkpt lat="-3.5000108555" lon="-80.3900439106"><ele>3.98</ele><time>2012-08-08T17:19:23Z</time></trkpt><trkpt lat="-3.5000106040" lon="-80.3900437430"><ele>3.98</ele><time>2012-08-08T17:19:58Z</time></trkpt><trkpt lat="-3.5000109393" lon="-80.3900430724"><ele>3.98</ele><time>2012-08-08T17:20:28Z</time></trkpt><trkpt lat="-3.5000109393" lon="-80.3900430724"><ele>3.98</ele><time>2012-08-08T17:21:00Z</time></trkpt><trkpt lat="-3.5000117775" lon="-80.3900429048"><ele>3.98</ele><time>2012-08-08T17:21:13Z</time></trkpt><trkpt lat="-3.5000117775" lon="-80.3900429048"><ele>4.46</ele><time>2012-08-08T17:21:22Z</time></trkpt><trkpt lat="-3.4999778308" lon="-80.3900180943"><ele>4.46</ele><time>2012-08-08T17:21:28Z</time></trkpt><trkpt lat="-3.5000106040" lon="-80.3900611773"><ele>4.46</ele><time>2012-08-08T17:21:38Z</time></trkpt><trkpt lat="-3.5000106040" lon="-80.3900611773"><ele>4.46</ele><time>2012-08-08T17:21:42Z</time></trkpt><trkpt lat="-3.5000106040" lon="-80.3900611773"><ele>4.46</ele><time>2012-08-08T17:22:05Z</time></trkpt></trkseg><trkseg><trkpt lat="-3.5000101849" lon="-80.3900596686"><ele>4.46</ele><time>2012-08-08T17:22:29Z</time></trkpt><trkpt lat="-3.5000112746" lon="-80.3900564834"><ele>4.46</ele><time>2012-08-08T17:22:38Z</time></trkpt><trkpt lat="-3.5000077542" lon="-80.3900407255"><ele>4.46</ele><time>2012-08-08T17:22:43Z</time></trkpt><trkpt lat="-3.4999749810" lon="-80.3900316730"><ele>4.46</ele><time>2012-08-08T17:22:49Z</time></trkpt><trkpt lat="-3.5000057425" lon="-80.3900680505"><ele>4.46</ele><time>2012-08-08T17:22:56Z</time></trkpt><trkpt lat="-3.5000057425" lon="-80.3900679667"><ele>4.46</ele><time>2012-08-08T17:23:07Z</time></trkpt><trkpt lat="-3.5000057425" lon="-80.3900679667"><ele>4.46</ele><time>2012-08-08T17:23:28Z</time></trkpt><trkpt lat="-3.5000080895" lon="-80.3900660388"><ele>4.94</ele><time>2012-08-08T17:23:49Z</time></trkpt></trkseg><trkseg><trkpt lat="-3.5000067484" lon="-80.3900677990"><ele>4.94</ele><time>2012-08-08T17:23:50Z</time></trkpt><trkpt lat="-3.5000073351" lon="-80.3900691401"><ele>4.94</ele><time>2012-08-08T17:24:07Z</time></trkpt><trkpt lat="-3.5000067484" lon="-80.3900677990"><ele>4.94</ele><time>2012-08-08T17:24:12Z</time></trkpt><trkpt lat="-3.5000084247" lon="-80.3900644463"><ele>4.94</ele><time>2012-08-08T17:24:20Z</time></trkpt><trkpt lat="-3.5000850353" lon="-80.3899657913"><ele>4.94</ele><time>2012-08-08T17:24:31Z</time></trkpt><trkpt lat="-3.5000742227" lon="-80.3899714071"><ele>4.94</ele><time>2012-08-08T17:24:39Z</time></trkpt><trkpt lat="-3.5000463948" lon="-80.3899897635"><ele>4.94</ele><time>2012-08-08T17:24:53Z</time></trkpt></trkseg><trkseg><trkpt lat="-3.5000606440" lon="-80.3899758495"><ele>4.94</ele><time>2012-08-08T17:24:56Z</time></trkpt><trkpt lat="-3.5001498275" lon="-80.3900022525"><ele>4.94</ele><time>2012-08-08T17:25:11Z</time></trkpt><trkpt lat="-3.5002100095" lon="-80.3900340199"><ele>4.94</ele><time>2012-08-08T17:25:26Z</time></trkpt><trkpt lat="-3.5002100095" lon="-80.3900340199"><ele>4.94</ele><time>2012-08-08T17:25:43Z</time></trkpt><trkpt lat="-3.5002590436" lon="-80.3900969680"><ele>4.94</ele><time>2012-08-08T17:26:05Z</time></trkpt><trkpt lat="-3.5003317147" lon="-80.3901568986"><ele>4.94</ele><time>2012-08-08T17:26:23Z</time></trkpt><trkpt lat="-3.5003533401" lon="-80.3901346866"><ele>4.94</ele><time>2012-08-08T17:26:37Z</time></trkpt><trkpt lat="-3.5003554355" lon="-80.3901278134"><ele>4.94</ele><time>2012-08-08T17:26:52Z</time></trkpt><trkpt lat="-3.5003555194" lon="-80.3901263047"><ele>4.94</ele><time>2012-08-08T17:27:34Z</time></trkpt><trkpt lat="-3.5003555194" lon="-80.3901263047"><ele>4.94</ele><time>2012-08-08T17:27:57Z</time></trkpt><trkpt lat="-3.5003552679" lon="-80.3901258856"><ele>4.94</ele><time>2012-08-08T17:28:31Z</time></trkpt><trkpt lat="-3.5003549326" lon="-80.3901253827"><ele>4.94</ele><time>2012-08-08T17:29:04Z</time></trkpt><trkpt lat="-3.5003564414" lon="-80.3901256341"><ele>4.94</ele><time>2012-08-08T17:29:38Z</time></trkpt><trkpt lat="-3.5003561061" lon="-80.3901253827"><ele>4.94</ele><time>2012-08-08T17:30:02Z</time></trkpt><trkpt lat="-3.5003561061" lon="-80.3901253827"><ele>4.94</ele><time>2012-08-08T17:30:33Z</time></trkpt><trkpt lat="-3.5003582016" lon="-80.3901252151"><ele>4.94</ele><time>2012-08-08T17:31:05Z</time></trkpt><trkpt lat="-3.5003587883" lon="-80.3901230358"><ele>4.94</ele><time>2012-08-08T17:31:35Z</time></trkpt><trkpt lat="-3.5003595427" lon="-80.3901202697"><ele>5.42</ele><time>2012-08-08T17:32:08Z</time></trkpt><trkpt lat="-3.5003595427" lon="-80.3901202697"><ele>5.42</ele><time>2012-08-08T17:32:40Z</time></trkpt><trkpt lat="-3.5003599618" lon="-80.3901195992"><ele>5.42</ele><time>2012-08-08T17:33:09Z</time></trkpt><trkpt lat="-3.5003617220" lon="-80.3901207726"><ele>5.42</ele><time>2012-08-08T17:33:40Z</time></trkpt><trkpt lat="-3.5003653262" lon="-80.3901216947"><ele>5.91</ele><time>2012-08-08T17:34:11Z</time></trkpt><trkpt lat="-3.5003642365" lon="-80.3901211079"><ele>5.91</ele><time>2012-08-08T17:34:33Z</time></trkpt></trkseg></trk></gpx>